Terminal Aerodrome Forecast
Issued by NWS Billings, MT

Home | Current Version | Previous Version | Text Only | Print | Product List | Glossary On
Versions: 1 2 3 4 5 6 7 8 9 10 11 12 13 14 15 16 17 18 19 20 21 22 23 24 25 26 27 28 29 30
000
FTUS45 KBYZ 031137
TAFBIL
TAF
KBIL 031137Z 0312/0412 10008KT P6SM FEW120
      TEMPO 0312/0315 6SM HZ=

USA.gov is the U.S. government's official web portal to all federal, state and local government web resources and services.